Houlton, ME

10:02 PM EDT on August 31, 2016 (GMT -0400)
Houlton International | | Change Station

Elev 492 ft 46.12 °N, 67.79 °W | Updated 9 minutes ago

Overcast
Overcast
66 °F
Feels Like 66 °F
N
0
Wind Variable Wind from North

Today
High -- | Low -- °F
--% Chance of Precip.
Yesterday
High -- | Low -- °F
Precip. -- in
Pressure 29.78 in
Visibility 10.0 miles
Clouds Mostly Cloudy 3000 ft
Mostly Cloudy 3700 ft
Overcast 7500 ft
Dew Point 65 °F
Humidity 96%
Rainfall 0.00 in
Snow Depth Not available.
5:51 AM 7:10 PM
Waning Crescent, 0% visible
METAR KHUL 010153Z AUTO 00000KT 10SM BKN030 BKN037 OVC075 19/18 A2978 RMK AO2 SLP083 T01890183 $
Pressure 29.78 in
Visibility 10.0 miles
Clouds Mostly Cloudy 3000 ft
Mostly Cloudy 3700 ft
Overcast 7500 ft
Dew Point 65 °F
Humidity 96%
Rainfall 0.00 in
Snow Depth Not available.
5:51 AM 7:10 PM
Waning Crescent, 0% visible
METAR KHUL 010153Z AUTO 00000KT 10SM BKN030 BKN037 OVC075 19/18 A2978 RMK AO2 SLP083 T01890183 $

10-Day Weather Forecast

Almanac

Astronomy

Aug. 31, 2016 Rise Set
Actual Time
Civil Twilight
Nautical Twilight
Astronomical Twilight
Moon
Length of Visible Light
Length of Day
Tomorrow will be .
, % of the Moon is Illuminated

Today's Extremes

State Highs State Lows

Community

WunderPhotos

Upload Photos

1,936,268 photos uploaded!

WunderBlog® & News

Nearby

Air Quality

  Air Quality AQ Index Pollutant
Not available.

Snow Depth

Station Depth Elevation

Earthquake Activity

City Distance Mag. Time & Date
Minimum magnitude displayed is 2.5.

Coastal Water Temperatures

Place Temperature

Stations

Nearby Weather Stations

Station Location Temp. Windchill Dew Point Humidity Wind Precip. Elev Updated Type
                   

Watches & Warnings

There are currently no watches in effect.